createdAt,value
2023-05-04T00:00:29.168Z,6.20
2023-05-04T00:01:31.857Z,6.80
2023-05-04T00:02:34.931Z,6.60
2023-05-04T00:03:38.774Z,7.20
2023-05-04T00:04:42.169Z,6.70
2023-05-04T00:05:45.351Z,5.90
2023-05-04T00:06:49.260Z,4.20
2023-05-04T00:07:53.615Z,6.40
2023-05-04T00:08:56.233Z,6.70
2023-05-04T00:09:59.582Z,7.30
2023-05-04T00:11:02.753Z,6.60
2023-05-04T00:12:07.318Z,6.10
2023-05-04T00:13:10.251Z,6.50
2023-05-04T00:14:13.134Z,6.91
2023-05-04T00:15:17.351Z,6.00
2023-05-04T00:16:20.565Z,6.60
2023-05-04T00:17:25.750Z,2.90
2023-05-04T00:18:29.260Z,5.10
2023-05-04T00:19:33.663Z,6.40
2023-05-04T00:21:51.520Z,5.50
2023-05-04T00:22:54.315Z,5.91
2023-05-04T00:23:59.022Z,6.10
2023-05-04T00:25:02.654Z,5.80
2023-05-04T00:26:05.889Z,0.50
2023-05-04T00:27:10.617Z,6.00
2023-05-04T00:28:15.514Z,6.40
2023-05-04T00:29:18.366Z,6.10
2023-05-04T00:30:21.928Z,6.10
2023-05-04T00:31:26.220Z,4.80
2023-05-04T00:32:30.261Z,6.00
2023-05-04T00:33:33.148Z,4.50
2023-05-04T00:34:36.980Z,5.91
2023-05-04T00:35:39.625Z,5.60
2023-05-04T00:36:42.862Z,6.00
2023-05-04T00:37:46.343Z,6.30
2023-05-04T00:38:54.422Z,2.50
2023-05-04T00:39:58.208Z,5.40
2023-05-04T00:41:01.650Z,5.00
2023-05-04T00:42:05.281Z,5.30
2023-05-04T00:43:09.367Z,6.80
2023-05-04T00:44:12.419Z,6.10
2023-05-04T00:45:15.533Z,5.60
2023-05-04T00:46:19.027Z,6.40
2023-05-04T00:47:23.093Z,6.40
2023-05-04T00:48:26.022Z,6.90
2023-05-04T00:49:30.396Z,5.40
2023-05-04T00:50:33.605Z,5.30
2023-05-04T00:52:48.508Z,5.00
2023-05-04T00:53:51.156Z,5.10
2023-05-04T00:54:53.842Z,5.00
2023-05-04T00:55:56.483Z,5.90
2023-05-04T00:56:59.666Z,5.30
2023-05-04T00:58:02.152Z,5.40
2023-05-04T00:59:04.832Z,5.40
2023-05-04T01:00:11.266Z,5.20
2023-05-04T01:01:14.100Z,5.00
2023-05-04T01:02:17.601Z,4.60
2023-05-04T01:03:20.501Z,6.20
2023-05-04T01:04:23.410Z,6.30
2023-05-04T01:05:30.149Z,4.40
2023-05-04T01:06:43.306Z,5.30
2023-05-04T01:07:56.154Z,6.40
2023-05-04T01:09:11.559Z,5.90
2023-05-04T01:11:42.775Z,6.20
2023-05-04T01:13:03.235Z,5.90
2023-05-04T01:14:06.478Z,6.20
2023-05-04T01:15:10.761Z,6.30
2023-05-04T01:16:14.064Z,5.50
2023-05-04T01:17:19.117Z,5.40
2023-05-04T01:18:23.087Z,5.10
2023-05-04T01:19:27.621Z,6.20
2023-05-04T01:20:31.160Z,5.00
2023-05-04T01:21:34.988Z,5.00
2023-05-04T01:22:38.450Z,3.40
2023-05-04T01:23:41.242Z,4.70
2023-05-04T01:24:44.462Z,6.30
2023-05-04T01:25:50.022Z,5.20
2023-05-04T01:28:14.377Z,5.10
2023-05-04T01:29:19.861Z,5.50
2023-05-04T01:30:28.144Z,5.70
2023-05-04T01:31:30.913Z,5.70
2023-05-04T01:32:35.564Z,5.40
2023-05-04T01:33:39.519Z,5.50
2023-05-04T01:34:42.335Z,5.40
2023-05-04T01:35:45.066Z,5.45
2023-05-04T01:36:47.960Z,5.40
2023-05-04T01:37:50.731Z,5.30
2023-05-04T01:38:55.637Z,4.80
2023-05-04T01:39:58.927Z,4.30
2023-05-04T01:41:01.769Z,5.30
2023-05-04T01:42:06.755Z,2.80
2023-05-04T01:43:09.553Z,5.90
2023-05-04T01:44:14.265Z,5.30
2023-05-04T01:45:19.109Z,4.80
2023-05-04T01:46:22.750Z,4.60
2023-05-04T01:47:26.373Z,5.40
2023-05-04T01:48:29.979Z,4.30
2023-05-04T01:49:32.772Z,4.80
2023-05-04T01:50:36.172Z,4.50
2023-05-04T01:51:39.149Z,5.80
2023-05-04T01:52:42.788Z,4.90
2023-05-04T01:53:45.698Z,5.40
2023-05-04T01:54:49.287Z,5.50
2023-05-04T01:55:52.027Z,4.60
2023-05-04T01:58:08.019Z,5.20
2023-05-04T01:59:11.130Z,5.50
2023-05-04T02:00:15.651Z,3.20
2023-05-04T02:01:18.772Z,5.50
2023-05-04T02:02:22.394Z,4.90
2023-05-04T02:03:26.905Z,5.00
2023-05-04T02:04:30.265Z,5.50
2023-05-04T02:05:32.983Z,4.70
2023-05-04T02:06:36.119Z,3.10
2023-05-04T02:07:39.424Z,4.91
2023-05-04T02:08:43.655Z,4.10
2023-05-04T02:09:47.402Z,4.30
2023-05-04T02:10:51.958Z,4.50
2023-05-04T02:11:55.127Z,4.50
2023-05-04T02:12:57.789Z,4.10
2023-05-04T02:14:00.715Z,3.40
2023-05-04T02:15:04.335Z,4.73
2023-05-04T02:16:08.238Z,4.80
2023-05-04T02:17:11.321Z,4.60
2023-05-04T02:18:14.033Z,5.50
2023-05-04T02:19:16.972Z,4.64
2023-05-04T02:20:20.110Z,4.40
2023-05-04T02:21:23.242Z,4.80
2023-05-04T02:22:26.037Z,5.00
2023-05-04T02:23:29.463Z,3.90
2023-05-04T02:24:35.312Z,4.70
2023-05-04T02:25:40.967Z,5.00
2023-05-04T02:26:44.979Z,5.00
2023-05-04T02:27:48.729Z,5.18
2023-05-04T02:28:52.088Z,4.80
2023-05-04T02:29:56.934Z,5.40
2023-05-04T02:31:01.041Z,5.00
2023-05-04T02:32:04.569Z,4.70
2023-05-04T02:33:08.040Z,4.90
2023-05-04T02:34:11.307Z,4.30
2023-05-04T02:35:16.167Z,4.70
2023-05-04T02:36:19.749Z,5.00
2023-05-04T02:37:23.606Z,4.40
2023-05-04T02:38:26.551Z,4.50
2023-05-04T02:39:29.435Z,4.60
2023-05-04T02:40:32.635Z,3.73
2023-05-04T02:41:35.636Z,5.30
2023-05-04T02:42:38.213Z,4.60
2023-05-04T02:43:42.144Z,5.91
2023-05-04T02:44:45.091Z,3.00
2023-05-04T02:45:47.825Z,5.00
2023-05-04T02:46:50.837Z,5.00
2023-05-04T02:47:53.746Z,3.55
2023-05-04T02:48:56.600Z,2.60
2023-05-04T02:50:00.439Z,4.60
2023-05-04T02:51:03.333Z,4.55
2023-05-04T02:52:07.925Z,3.90
2023-05-04T02:53:10.745Z,4.30
2023-05-04T02:54:13.778Z,4.60
2023-05-04T02:55:16.658Z,4.90
2023-05-04T02:56:19.518Z,4.64
2023-05-04T02:57:22.324Z,5.00
2023-05-04T02:58:25.780Z,4.82
2023-05-04T02:59:28.692Z,3.60
2023-05-04T03:00:31.510Z,3.73
2023-05-04T03:01:34.953Z,4.00
2023-05-04T03:02:38.666Z,4.00
2023-05-04T03:03:42.747Z,4.50
2023-05-04T03:04:45.815Z,4.20
2023-05-04T03:05:49.684Z,4.20
2023-05-04T03:06:52.822Z,3.80
2023-05-04T03:07:56.537Z,4.45
2023-05-04T03:09:00.778Z,4.30
2023-05-04T03:10:04.666Z,4.10
2023-05-04T03:11:07.713Z,3.70
2023-05-04T03:12:11.253Z,4.00
2023-05-04T03:13:14.218Z,4.10
2023-05-04T03:14:18.585Z,4.70
2023-05-04T03:15:21.599Z,4.90
2023-05-04T03:16:24.431Z,4.20
2023-05-04T03:17:27.324Z,3.80
2023-05-04T03:19:52.719Z,3.50
2023-05-04T03:22:07.987Z,4.40
2023-05-04T03:23:11.753Z,4.10
2023-05-04T03:24:16.644Z,4.18
2023-05-04T03:26:31.976Z,4.00
2023-05-04T03:27:34.686Z,3.50
2023-05-04T03:28:37.610Z,4.10
2023-05-04T03:29:40.556Z,3.55
2023-05-04T03:30:43.575Z,4.18
2023-05-04T03:31:47.776Z,4.10
2023-05-04T03:32:50.997Z,4.90
2023-05-04T03:33:55.198Z,2.70
2023-05-04T03:34:58.296Z,3.30
2023-05-04T03:36:01.633Z,3.70
2023-05-04T03:37:04.729Z,3.80
2023-05-04T03:38:08.082Z,3.82
2023-05-04T03:39:10.934Z,4.00
2023-05-04T03:40:14.353Z,4.20
2023-05-04T03:41:17.559Z,4.60
2023-05-04T03:42:20.215Z,3.70
2023-05-04T03:43:23.140Z,4.00
2023-05-04T03:44:25.959Z,4.64
2023-05-04T03:45:28.845Z,3.45
2023-05-04T03:46:33.288Z,4.50
2023-05-04T03:47:37.845Z,3.90
2023-05-04T03:48:42.609Z,4.30
2023-05-04T03:49:47.734Z,4.50
2023-05-04T03:50:51.126Z,4.10
2023-05-04T03:51:55.333Z,4.30
2023-05-04T03:52:58.429Z,3.30
2023-05-04T03:54:02.565Z,3.80
2023-05-04T03:55:06.720Z,4.00
2023-05-04T03:56:12.096Z,4.60
2023-05-04T03:58:27.690Z,5.00
2023-05-04T03:59:33.912Z,2.60
2023-05-04T04:00:38.485Z,4.10
2023-05-04T04:01:43.129Z,4.00
2023-05-04T04:02:45.919Z,4.73
2023-05-04T04:03:50.614Z,5.10
2023-05-04T04:04:54.350Z,4.20
2023-05-04T04:05:58.108Z,4.20
2023-05-04T04:07:02.996Z,4.00
2023-05-04T04:08:06.030Z,4.00
2023-05-04T04:09:08.762Z,4.27
2023-05-04T04:10:12.949Z,0.50
2023-05-04T04:11:15.973Z,4.50
2023-05-04T04:12:19.912Z,4.10
2023-05-04T04:13:22.466Z,4.20
2023-05-04T04:14:26.301Z,4.30
2023-05-04T04:15:30.049Z,4.10
2023-05-04T04:16:33.323Z,4.00
2023-05-04T04:17:35.981Z,4.40
2023-05-04T04:18:39.942Z,4.10
2023-05-04T04:19:42.894Z,5.00
2023-05-04T04:20:46.826Z,5.90
2023-05-04T04:21:50.383Z,5.91
2023-05-04T04:22:54.392Z,5.80
2023-05-04T04:23:58.358Z,5.90
2023-05-04T04:25:01.076Z,5.80
2023-05-04T04:27:17.642Z,6.70
2023-05-04T04:29:24.516Z,5.80
2023-05-04T04:30:27.403Z,6.30
2023-05-04T04:31:30.561Z,5.30
2023-05-04T04:32:33.489Z,6.10
2023-05-04T04:33:36.374Z,6.00
2023-05-04T04:34:40.201Z,5.60
2023-05-04T04:35:43.152Z,4.45
2023-05-04T04:36:45.856Z,5.70
2023-05-04T04:37:49.573Z,6.10
2023-05-04T04:38:52.207Z,6.30
2023-05-04T04:39:55.266Z,6.10
2023-05-04T04:40:58.327Z,6.20
2023-05-04T04:42:04.236Z,6.64
2023-05-04T04:44:20.165Z,5.50
2023-05-04T04:45:23.062Z,5.90
2023-05-04T04:46:25.723Z,6.73
2023-05-04T04:47:29.587Z,7.00
2023-05-04T04:48:32.232Z,6.40
2023-05-04T04:49:36.102Z,5.80
2023-05-04T04:50:40.320Z,5.80
2023-05-04T04:51:44.535Z,5.10
2023-05-04T04:52:49.341Z,6.50
2023-05-04T04:53:52.168Z,5.90
2023-05-04T04:54:57.173Z,6.20
2023-05-04T04:56:01.502Z,6.50
2023-05-04T04:57:05.556Z,5.90
2023-05-04T04:58:10.469Z,5.10
2023-05-04T04:59:13.560Z,5.30
2023-05-04T05:00:19.313Z,5.60
2023-05-04T05:01:22.080Z,5.40
2023-05-04T05:02:25.996Z,6.45
2023-05-04T05:03:28.617Z,4.90
2023-05-04T05:04:31.669Z,5.80
2023-05-04T05:05:35.515Z,6.20
2023-05-04T05:06:38.985Z,6.30
2023-05-04T05:07:43.265Z,4.50
2023-05-04T05:08:46.146Z,6.60
2023-05-04T05:09:48.858Z,6.45
2023-05-04T05:10:52.486Z,6.30
2023-05-04T05:11:56.230Z,5.70
2023-05-04T05:12:59.022Z,5.20
2023-05-04T05:14:01.847Z,5.50
2023-05-04T05:15:10.522Z,5.70
2023-05-04T05:16:13.632Z,5.30
2023-05-04T05:17:17.365Z,5.09
2023-05-04T05:18:20.898Z,5.30
2023-05-04T05:19:24.919Z,5.40
2023-05-04T05:20:29.496Z,5.50
2023-05-04T05:21:33.040Z,5.60
2023-05-04T05:22:37.319Z,5.80
2023-05-04T05:23:41.599Z,6.60
2023-05-04T05:24:44.896Z,5.60
2023-05-04T05:25:49.174Z,5.80
2023-05-04T05:26:52.644Z,5.20
2023-05-04T05:27:55.726Z,5.40
2023-05-04T05:28:58.330Z,5.40
2023-05-04T05:30:02.645Z,5.90
2023-05-04T05:31:06.529Z,5.90
2023-05-04T05:32:09.560Z,6.40
2023-05-04T05:33:13.330Z,4.60
2023-05-04T05:34:16.353Z,4.00
2023-05-04T05:35:19.554Z,5.60
2023-05-04T05:36:22.837Z,4.00
2023-05-04T05:37:25.543Z,6.60
2023-05-04T05:38:28.081Z,5.90
2023-05-04T05:39:31.638Z,5.50
2023-05-04T05:40:35.736Z,6.10
2023-05-04T05:41:38.494Z,6.60
2023-05-04T05:42:42.432Z,5.10
2023-05-04T05:43:45.228Z,6.70
2023-05-04T05:44:48.271Z,6.10
2023-05-04T05:45:51.729Z,6.20
2023-05-04T05:46:55.687Z,6.00
2023-05-04T05:47:59.464Z,6.00
2023-05-04T05:49:05.503Z,6.00
2023-05-04T05:50:08.857Z,5.50
2023-05-04T05:51:12.724Z,5.90
2023-05-04T05:52:15.625Z,5.60
2023-05-04T05:53:18.848Z,6.00
2023-05-04T05:54:23.031Z,6.90
2023-05-04T05:55:26.059Z,6.00
2023-05-04T05:56:29.269Z,5.09
2023-05-04T05:57:32.610Z,3.70
2023-05-04T05:58:35.929Z,5.50
2023-05-04T05:59:41.138Z,6.80
2023-05-04T06:00:43.962Z,5.10
2023-05-04T06:01:48.112Z,6.20
2023-05-04T06:02:52.166Z,6.80
2023-05-04T06:03:56.215Z,5.30
2023-05-04T06:04:59.741Z,7.20
2023-05-04T06:06:03.252Z,5.40
2023-05-04T06:07:06.079Z,6.40
2023-05-04T06:08:09.387Z,5.60
2023-05-04T06:09:12.502Z,4.55
2023-05-04T06:10:17.419Z,4.30
2023-05-04T06:11:20.919Z,6.60
2023-05-04T06:12:24.718Z,6.20
2023-05-04T06:13:27.813Z,4.90
2023-05-04T06:14:30.526Z,5.90
2023-05-04T06:15:34.283Z,5.60
2023-05-04T06:16:37.560Z,6.00
2023-05-04T06:17:41.600Z,3.80
2023-05-04T06:18:45.325Z,5.30
2023-05-04T06:19:51.188Z,6.30
2023-05-04T06:20:59.479Z,5.80
2023-05-04T06:22:02.355Z,4.90
2023-05-04T06:23:05.805Z,5.70
2023-05-04T06:24:08.830Z,5.64
2023-05-04T06:25:12.285Z,5.64
2023-05-04T06:26:15.140Z,6.00
2023-05-04T06:27:18.727Z,5.90
2023-05-04T06:28:21.447Z,5.82
2023-05-04T06:29:25.567Z,5.00
2023-05-04T06:30:28.663Z,7.00
2023-05-04T06:31:31.234Z,5.00
2023-05-04T06:32:35.405Z,4.30
2023-05-04T06:33:38.952Z,5.40
2023-05-04T06:34:42.889Z,5.70
2023-05-04T06:35:46.439Z,5.90
2023-05-04T06:36:49.251Z,5.30
2023-05-04T06:38:56.171Z,5.90
2023-05-04T06:39:59.423Z,6.40
2023-05-04T06:41:04.437Z,5.80
2023-05-04T06:42:08.309Z,6.10
2023-05-04T06:43:13.977Z,6.60
2023-05-04T06:44:18.484Z,6.40
2023-05-04T06:45:22.354Z,6.30
2023-05-04T06:46:25.424Z,6.45
2023-05-04T06:47:28.431Z,5.00
2023-05-04T06:48:31.890Z,5.27
2023-05-04T06:49:34.946Z,4.90
2023-05-04T06:50:38.821Z,6.20
2023-05-04T06:51:41.462Z,6.40
2023-05-04T06:52:45.497Z,6.80
2023-05-04T06:53:48.265Z,6.10
2023-05-04T06:54:52.237Z,3.10
2023-05-04T06:55:55.539Z,4.90
2023-05-04T06:56:58.391Z,3.64
2023-05-04T06:58:02.236Z,5.70
2023-05-04T06:59:05.765Z,6.70
2023-05-04T07:00:10.149Z,6.10
2023-05-04T07:01:15.677Z,5.50
2023-05-04T07:02:20.402Z,6.70
2023-05-04T07:03:23.584Z,6.70
2023-05-04T07:04:27.333Z,5.30
2023-05-04T07:05:30.288Z,5.50
2023-05-04T07:06:33.201Z,4.50
2023-05-04T07:07:37.073Z,5.64
2023-05-04T07:08:40.163Z,5.50
2023-05-04T07:09:43.616Z,5.80
2023-05-04T07:10:46.524Z,5.10
2023-05-04T07:11:49.242Z,6.00
2023-05-04T07:12:51.836Z,6.30
2023-05-04T07:13:54.855Z,6.00
2023-05-04T07:14:58.601Z,4.70
2023-05-04T07:16:01.439Z,6.00
2023-05-04T07:17:04.310Z,5.82
2023-05-04T07:18:08.251Z,5.64
2023-05-04T07:19:11.575Z,6.80
2023-05-04T07:20:17.597Z,5.70
2023-05-04T07:21:28.346Z,5.60
2023-05-04T07:22:26.351Z,5.30
2023-05-04T07:23:29.528Z,4.20
2023-05-04T07:24:32.662Z,5.30
2023-05-04T07:25:35.779Z,5.55
2023-05-04T07:26:38.633Z,6.30
2023-05-04T07:27:43.258Z,5.09
2023-05-04T07:28:46.218Z,6.00
2023-05-04T07:29:50.433Z,4.50
2023-05-04T07:30:54.375Z,5.30
2023-05-04T07:31:57.089Z,4.90
2023-05-04T07:33:00.997Z,6.80
2023-05-04T07:34:04.797Z,6.40
2023-05-04T07:35:08.823Z,5.30
2023-05-04T07:36:11.733Z,4.90
2023-05-04T07:37:15.537Z,5.20
2023-05-04T07:38:18.344Z,6.40
2023-05-04T07:39:22.865Z,6.00
2023-05-04T07:40:27.445Z,6.00
2023-05-04T07:41:32.216Z,5.40
2023-05-04T07:42:35.998Z,5.10
2023-05-04T07:43:40.552Z,5.90
2023-05-04T07:44:44.222Z,5.90
2023-05-04T07:45:48.154Z,6.40
2023-05-04T07:46:52.222Z,4.80
2023-05-04T07:47:55.150Z,4.10
2023-05-04T07:49:00.758Z,6.80
2023-05-04T07:50:07.241Z,6.20
2023-05-04T07:51:15.716Z,3.80
2023-05-04T07:52:19.153Z,5.40
2023-05-04T07:53:25.160Z,5.20
2023-05-04T07:54:28.052Z,5.80
2023-05-04T07:55:31.000Z,5.90
2023-05-04T07:56:36.896Z,4.80
2023-05-04T07:57:40.977Z,5.10
2023-05-04T07:58:45.379Z,6.40
2023-05-04T07:59:48.192Z,5.20
2023-05-04T08:00:52.028Z,6.30
2023-05-04T08:03:07.902Z,5.50
2023-05-04T08:04:12.984Z,4.90
2023-05-04T08:05:17.866Z,5.50
2023-05-04T08:06:21.366Z,5.80
2023-05-04T08:07:24.914Z,5.91
2023-05-04T08:08:27.990Z,5.60
2023-05-04T08:09:31.651Z,4.90
2023-05-04T08:10:37.989Z,5.50
2023-05-04T08:11:43.947Z,6.20
2023-05-04T08:12:47.881Z,5.60
2023-05-04T08:13:51.724Z,5.50
2023-05-04T08:14:54.468Z,6.50
2023-05-04T08:15:59.548Z,5.50
2023-05-04T08:17:02.625Z,4.90
2023-05-04T08:18:07.254Z,6.00
2023-05-04T08:19:11.860Z,4.60
2023-05-04T08:20:14.621Z,5.20
2023-05-04T08:21:17.342Z,5.64
2023-05-04T08:22:21.710Z,4.40
2023-05-04T08:23:25.024Z,5.70
2023-05-04T08:24:28.136Z,5.30
2023-05-04T08:25:31.095Z,6.70
2023-05-04T08:26:39.464Z,5.90
2023-05-04T08:27:42.151Z,5.40
2023-05-04T08:28:45.750Z,5.90
2023-05-04T08:29:49.082Z,6.36
2023-05-04T08:30:51.977Z,6.80
2023-05-04T08:31:57.235Z,6.90
2023-05-04T08:33:00.238Z,6.90
2023-05-04T08:34:04.368Z,5.10
2023-05-04T08:35:08.838Z,5.70
2023-05-04T08:36:12.458Z,7.20
2023-05-04T08:37:15.368Z,6.60
2023-05-04T08:38:18.658Z,5.91
2023-05-04T08:39:22.452Z,5.50
2023-05-04T08:40:25.692Z,6.00
2023-05-04T08:41:29.367Z,6.10
2023-05-04T08:42:33.621Z,6.70
2023-05-04T08:43:36.922Z,3.60
2023-05-04T08:44:40.748Z,5.70
2023-05-04T08:45:44.435Z,6.60
2023-05-04T08:46:49.850Z,6.45
2023-05-04T08:47:52.999Z,5.70
2023-05-04T08:48:55.782Z,5.50
2023-05-04T08:49:58.374Z,5.20
2023-05-04T08:51:04.464Z,6.55
2023-05-04T08:52:08.957Z,5.40
2023-05-04T08:53:13.205Z,6.40
2023-05-04T08:54:16.522Z,6.40
2023-05-04T08:55:20.292Z,7.20
2023-05-04T08:56:23.972Z,6.90
2023-05-04T08:57:26.726Z,6.10
2023-05-04T08:58:29.762Z,6.55
2023-05-04T08:59:33.256Z,3.20
2023-05-04T09:00:39.509Z,6.80
2023-05-04T09:01:42.251Z,5.60
2023-05-04T09:02:45.555Z,4.00
2023-05-04T09:03:48.484Z,6.90
2023-05-04T09:04:54.959Z,5.80
2023-05-04T09:05:58.066Z,6.20
2023-05-04T09:07:01.309Z,6.40
2023-05-04T09:08:06.430Z,6.20
2023-05-04T09:09:10.337Z,5.70
2023-05-04T09:10:13.612Z,6.90
2023-05-04T09:11:17.451Z,6.60
2023-05-04T09:12:20.360Z,6.20
2023-05-04T09:13:22.991Z,5.64
2023-05-04T09:14:31.762Z,6.70
2023-05-04T09:15:34.810Z,6.70
2023-05-04T09:16:38.137Z,7.00
2023-05-04T09:17:50.887Z,6.50
2023-05-04T09:18:47.040Z,5.50
2023-05-04T09:21:13.716Z,8.80
2023-05-04T09:22:18.504Z,8.10
2023-05-04T09:23:23.202Z,6.80
2023-05-04T09:27:10.585Z,8.30
2023-05-04T09:28:14.150Z,7.60
2023-05-04T09:29:17.006Z,6.60
2023-05-04T09:30:25.727Z,7.91
2023-05-04T09:31:29.468Z,7.50
2023-05-04T09:32:46.769Z,7.60
2023-05-04T09:33:51.974Z,7.50
2023-05-04T09:34:54.534Z,7.20
2023-05-04T09:35:59.235Z,6.50
2023-05-04T09:37:04.335Z,6.90
2023-05-04T09:38:07.911Z,7.20
2023-05-04T09:39:14.781Z,7.50
2023-05-04T09:40:17.485Z,7.00
2023-05-04T09:41:24.425Z,6.82
2023-05-04T09:43:42.326Z,8.10
2023-05-04T09:44:47.364Z,6.80
2023-05-04T09:45:50.821Z,6.50
2023-05-04T09:46:57.598Z,7.70
2023-05-04T09:48:02.328Z,6.30
2023-05-04T09:49:05.956Z,5.10
2023-05-04T09:50:16.836Z,7.80
2023-05-04T09:52:36.038Z,8.60
2023-05-04T09:53:38.864Z,8.90
2023-05-04T09:54:41.551Z,9.27
2023-05-04T09:55:46.251Z,8.10
2023-05-04T09:56:49.976Z,8.90
2023-05-04T09:57:53.690Z,7.20
2023-05-04T09:58:58.188Z,9.30
2023-05-04T10:00:02.572Z,9.60
2023-05-04T10:01:07.682Z,8.80
2023-05-04T10:02:21.996Z,9.40
2023-05-04T10:03:18.700Z,7.00
2023-05-04T10:04:22.518Z,10.20
2023-05-04T10:05:26.261Z,10.80
2023-05-04T10:07:46.671Z,10.60
2023-05-04T10:08:50.683Z,10.30
2023-05-04T10:09:55.094Z,10.40
2023-05-04T10:10:59.339Z,9.80
2023-05-04T10:13:17.428Z,11.70
2023-05-04T10:14:20.699Z,9.60
2023-05-04T10:15:24.357Z,10.50
2023-05-04T10:16:40.312Z,9.70
2023-05-04T10:18:20.962Z,12.30
2023-05-04T10:19:53.657Z,9.20
2023-05-04T10:21:07.253Z,12.20
2023-05-04T10:22:20.034Z,10.60
2023-05-04T10:23:33.686Z,10.40
2023-05-04T10:26:12.955Z,9.70
2023-05-04T10:28:57.397Z,9.60
2023-05-04T10:30:01.463Z,9.80
2023-05-04T10:31:06.052Z,10.70
2023-05-04T10:32:22.516Z,10.90
2023-05-04T10:33:25.773Z,9.30
2023-05-04T10:34:33.359Z,10.80
2023-05-04T10:35:37.275Z,9.00
2023-05-04T10:36:43.799Z,9.20
2023-05-04T10:37:53.787Z,9.90
2023-05-04T10:38:58.835Z,8.80
2023-05-04T10:40:02.851Z,8.80
2023-05-04T10:41:16.308Z,8.30
2023-05-04T10:42:21.019Z,9.40
2023-05-04T10:43:23.710Z,8.70
2023-05-04T10:44:27.298Z,8.20
2023-05-04T10:45:44.374Z,8.80
2023-05-04T10:48:04.499Z,8.50
2023-05-04T10:50:51.279Z,6.80
2023-05-04T10:52:11.926Z,9.90
2023-05-04T10:54:31.512Z,9.00
2023-05-04T10:55:41.225Z,9.40
2023-05-04T10:56:44.640Z,8.70
2023-05-04T10:57:55.893Z,9.40
2023-05-04T10:59:03.357Z,9.70
2023-05-04T11:00:09.929Z,9.00
2023-05-04T11:01:12.935Z,9.00
2023-05-04T11:03:42.376Z,10.40
2023-05-04T11:04:45.428Z,10.70
2023-05-04T11:05:54.260Z,10.82
2023-05-04T11:06:58.394Z,10.10
2023-05-04T11:08:01.192Z,9.80
2023-05-04T11:09:05.789Z,9.82
2023-05-04T11:11:23.788Z,10.70
2023-05-04T11:12:29.761Z,9.30
2023-05-04T11:14:50.286Z,9.50
2023-05-04T11:15:53.397Z,9.70
2023-05-04T11:17:26.194Z,8.40
2023-05-04T11:18:12.472Z,10.30
2023-05-04T11:19:16.362Z,8.80
2023-05-04T11:20:23.225Z,7.90
2023-05-04T11:21:26.835Z,10.00
2023-05-04T11:22:31.473Z,9.90
2023-05-04T11:23:35.850Z,9.90
2023-05-04T11:24:43.359Z,8.30
2023-05-04T11:25:46.803Z,7.80
2023-05-04T11:26:50.669Z,8.50
2023-05-04T11:27:54.164Z,8.00
2023-05-04T11:28:58.729Z,9.40
2023-05-04T11:30:04.048Z,7.90
2023-05-04T11:31:17.196Z,8.50
2023-05-04T11:32:21.212Z,8.40
2023-05-04T11:33:24.852Z,8.30
2023-05-04T11:34:27.653Z,9.50
2023-05-04T11:35:31.726Z,8.91
2023-05-04T11:36:40.528Z,10.20
2023-05-04T11:37:44.930Z,10.70
2023-05-04T11:38:47.833Z,10.10
2023-05-04T11:39:50.552Z,8.40
2023-05-04T11:40:54.240Z,10.55
2023-05-04T11:41:57.428Z,8.80
2023-05-04T11:43:00.775Z,8.50
2023-05-04T11:44:06.613Z,6.20
2023-05-04T11:45:14.991Z,9.60
2023-05-04T11:46:19.683Z,9.50
2023-05-04T11:47:23.745Z,8.90
2023-05-04T11:48:28.185Z,8.90
2023-05-04T11:49:32.944Z,10.80
2023-05-04T11:50:36.061Z,10.90
2023-05-04T11:51:38.890Z,8.90
2023-05-04T11:52:43.081Z,6.80
2023-05-04T11:53:45.859Z,9.00
2023-05-04T11:54:57.753Z,9.90
2023-05-04T11:56:03.081Z,8.00
2023-05-04T11:58:26.560Z,10.10
2023-05-04T11:59:30.182Z,10.70
2023-05-04T12:00:42.164Z,10.20
2023-05-04T12:01:46.289Z,9.20
2023-05-04T12:02:56.555Z,10.00
2023-05-04T12:05:12.811Z,10.80
2023-05-04T12:06:15.954Z,7.90
2023-05-04T12:07:18.634Z,9.20
2023-05-04T12:08:35.759Z,9.60
2023-05-04T12:12:33.494Z,8.30
2023-05-04T12:13:37.557Z,9.50
2023-05-04T12:14:54.091Z,8.90
2023-05-04T12:15:56.843Z,10.10
2023-05-04T12:17:03.061Z,10.91
2023-05-04T12:19:17.686Z,12.50
2023-05-04T12:20:25.560Z,10.70
2023-05-04T12:21:28.920Z,11.40
2023-05-04T12:22:35.449Z,11.20
2023-05-04T12:23:39.391Z,8.10
2023-05-04T12:25:55.068Z,13.20
2023-05-04T12:26:51.742Z,11.50
2023-05-04T12:27:54.599Z,12.60
2023-05-04T12:28:59.219Z,12.20
2023-05-04T12:30:02.597Z,12.80
2023-05-04T12:31:07.152Z,12.40
2023-05-04T12:32:10.409Z,11.50
2023-05-04T12:33:14.030Z,11.20
2023-05-04T12:34:16.777Z,11.50
2023-05-04T12:35:19.922Z,12.45
2023-05-04T12:36:22.676Z,13.10
2023-05-04T12:37:25.366Z,11.27
2023-05-04T12:38:29.554Z,11.40
2023-05-04T12:39:33.748Z,11.40
2023-05-04T12:40:36.545Z,11.90
2023-05-04T12:41:40.708Z,11.64
2023-05-04T12:42:44.134Z,11.30
2023-05-04T12:43:49.280Z,12.60
2023-05-04T12:44:53.147Z,11.90
2023-05-04T12:45:56.080Z,12.50
2023-05-04T12:46:59.339Z,10.10
2023-05-04T12:48:03.225Z,12.20
2023-05-04T12:49:06.712Z,12.30
2023-05-04T12:50:10.346Z,11.30
2023-05-04T12:51:13.685Z,11.50
2023-05-04T12:52:17.796Z,6.70
2023-05-04T12:53:23.557Z,12.60
2023-05-04T12:54:27.492Z,11.10
2023-05-04T12:55:32.062Z,10.50
2023-05-04T12:56:36.118Z,10.20
2023-05-04T12:57:39.225Z,12.30
2023-05-04T12:58:41.957Z,12.70
2023-05-04T12:59:44.914Z,11.20
2023-05-04T13:00:48.853Z,9.30
2023-05-04T13:01:51.897Z,10.64
2023-05-04T13:02:54.794Z,11.30
2023-05-04T13:03:57.589Z,12.10
2023-05-04T13:05:00.432Z,12.10
2023-05-04T13:06:04.497Z,11.40
2023-05-04T13:07:08.502Z,11.00
2023-05-04T13:08:11.469Z,11.20
2023-05-04T13:09:15.179Z,8.45
2023-05-04T13:10:18.656Z,10.60
2023-05-04T13:11:24.782Z,10.90
2023-05-04T13:12:27.616Z,12.40
2023-05-04T13:13:30.377Z,10.90
2023-05-04T13:14:39.289Z,11.30
2023-05-04T13:15:39.592Z,11.20
2023-05-04T13:16:43.654Z,9.40
2023-05-04T13:17:46.672Z,11.40
2023-05-04T13:20:03.773Z,11.40
2023-05-04T13:21:07.645Z,10.90
2023-05-04T13:22:10.258Z,9.80
2023-05-04T13:23:13.757Z,11.90
2023-05-04T13:24:16.773Z,10.60
2023-05-04T13:25:21.657Z,10.90
2023-05-04T13:26:25.476Z,12.10
2023-05-04T13:27:28.868Z,11.50
2023-05-04T13:28:32.378Z,10.80
2023-05-04T13:29:36.139Z,10.50
2023-05-04T13:30:40.377Z,8.90
2023-05-04T13:31:44.698Z,11.40
2023-05-04T13:32:48.468Z,12.10
2023-05-04T13:33:51.765Z,9.60
2023-05-04T13:34:55.733Z,11.30
2023-05-04T13:35:59.595Z,11.90
2023-05-04T13:37:02.735Z,9.50
2023-05-04T13:38:05.434Z,10.50
2023-05-04T13:39:09.064Z,10.90
2023-05-04T13:40:14.584Z,10.80
2023-05-04T13:41:17.648Z,11.60
2023-05-04T13:42:21.318Z,10.10
2023-05-04T13:43:24.298Z,10.36
2023-05-04T13:44:28.391Z,11.20
2023-05-04T13:45:32.699Z,11.00
2023-05-04T13:46:36.308Z,7.00
2023-05-04T13:47:39.998Z,11.30
2023-05-04T13:48:42.961Z,12.10
2023-05-04T13:49:46.881Z,7.00
2023-05-04T13:50:50.101Z,11.10
2023-05-04T13:51:57.367Z,10.64
2023-05-04T13:53:01.358Z,11.70
2023-05-04T13:54:05.522Z,11.50
2023-05-04T13:55:09.217Z,10.80
2023-05-04T13:56:13.333Z,12.30
2023-05-04T13:57:16.622Z,11.20
2023-05-04T13:58:20.347Z,8.91
2023-05-04T13:59:23.737Z,11.40
2023-05-04T14:00:28.499Z,11.20
2023-05-04T14:01:31.770Z,11.70
2023-05-04T14:02:35.292Z,11.60
2023-05-04T14:03:38.140Z,11.30
2023-05-04T14:04:44.436Z,12.73
2023-05-04T14:05:47.606Z,11.50
2023-05-04T14:06:51.448Z,11.30
2023-05-04T14:07:55.798Z,11.50
2023-05-04T14:08:59.869Z,11.80
2023-05-04T14:10:04.083Z,11.90
2023-05-04T14:11:07.570Z,10.50
2023-05-04T14:12:10.582Z,10.90
2023-05-04T14:13:14.104Z,10.45
2023-05-04T14:14:18.057Z,12.10
2023-05-04T14:15:25.032Z,8.50
2023-05-04T14:16:29.118Z,11.50
2023-05-04T14:17:33.211Z,11.00
2023-05-04T14:18:36.784Z,11.70
2023-05-04T14:19:40.715Z,9.90
2023-05-04T14:20:44.422Z,10.50
2023-05-04T14:21:48.582Z,8.90
2023-05-04T14:22:52.074Z,10.20
2023-05-04T14:23:56.384Z,9.00
2023-05-04T14:24:59.123Z,9.90
2023-05-04T14:26:03.520Z,10.45
2023-05-04T14:28:19.046Z,9.20
2023-05-04T14:29:23.174Z,10.90
2023-05-04T14:30:27.831Z,9.00
2023-05-04T14:31:31.724Z,10.10
2023-05-04T14:32:35.787Z,10.20
2023-05-04T14:33:40.563Z,10.50
2023-05-04T14:34:44.284Z,10.50
2023-05-04T14:35:48.369Z,9.30
2023-05-04T14:36:53.131Z,9.20
2023-05-04T14:39:08.181Z,7.90
2023-05-04T14:40:12.758Z,10.20
2023-05-04T14:41:15.873Z,11.50
2023-05-04T14:43:57.754Z,11.10
2023-05-04T14:45:02.304Z,10.20
2023-05-04T14:47:20.900Z,10.40
2023-05-04T14:48:25.518Z,6.60
2023-05-04T14:50:34.300Z,10.30
2023-05-04T14:51:39.781Z,10.80
2023-05-04T14:52:42.586Z,10.40
2023-05-04T14:53:47.768Z,11.20
2023-05-04T14:54:50.681Z,10.00
2023-05-04T14:55:55.185Z,7.80
2023-05-04T14:57:00.308Z,9.20
2023-05-04T14:58:03.592Z,8.70
2023-05-04T14:59:07.182Z,10.90
2023-05-04T15:00:12.487Z,9.70
2023-05-04T15:01:16.231Z,9.00
2023-05-04T15:02:20.259Z,10.00